Time;durP1;ratioP1;P1;durP2;ratioP2;P2;SDS_P1;SDS_P2;PMS_P1;PMS_P2;Temp;Humidity;BMP_temperature;BMP_pressure;BME280_temperature;BME280_humidity;BME280_pressure;Samples;Min_cycle;Max_cycle;Signal;HPM_P1;HPM_P2
2023/12/12 00:00:52;;;;;;;16.05;2.90;;;;;;;10.11;100.00;99204.69;12190701;19;20026;-84
2023/12/12 00:04:54;;;;;;;14.07;3.42;;;;;;;10.12;100.00;99198.94;12211594;19;20006;-85
2023/12/12 00:08:56;;;;;;;16.10;3.67;;;;;;;10.07;100.00;99189.81;12211419;19;20010;-85
2023/12/12 00:12:58;;;;;;;18.43;2.90;;;;;;;9.93;100.00;99187.47;12189606;19;20377;-84
2023/12/12 00:17:01;;;;;;;14.88;3.47;;;;;;;9.78;100.00;99198.31;12211730;19;20034;-86
2023/12/12 00:21:05;;;;;;;9.10;2.72;;;;;;;9.65;100.00;99193.25;12212787;19;20070;-86
2023/12/12 00:25:07;;;;;;;14.03;3.27;;;;;;;9.48;100.00;99201.59;12189409;19;20371;-87
2023/12/12 00:29:10;;;;;;;18.45;3.47;;;;;;;9.40;100.00;99204.78;12209013;19;20014;-86
2023/12/12 00:33:12;;;;;;;25.85;4.05;;;;;;;9.30;100.00;99203.56;12208454;19;20371;-86
2023/12/12 00:37:14;;;;;;;14.83;3.27;;;;;;;9.20;100.00;99208.13;12186679;19;20370;-86
2023/12/12 00:41:16;;;;;;;15.90;2.87;;;;;;;9.11;100.00;99192.06;12211394;19;20007;-87
2023/12/12 00:45:18;;;;;;;18.88;3.97;;;;;;;9.07;100.00;99203.81;12209849;19;20822;-86
2023/12/12 00:49:20;;;;;;;13.55;3.00;;;;;;;9.00;100.00;99203.19;12187189;19;20006;-86
2023/12/12 00:53:22;;;;;;;11.60;2.97;;;;;;;9.10;100.00;99201.41;12209156;19;20050;-86
2023/12/12 00:57:25;;;;;;;11.88;2.40;;;;;;;9.23;100.00;99200.19;12210578;19;20029;-87
2023/12/12 01:01:27;;;;;;;16.52;3.38;;;;;;;9.30;100.00;99197.25;12190780;19;20010;-87
2023/12/12 01:05:36;;;;;;;16.33;2.95;;;;;;;9.36;100.00;99196.22;12211456;19;20014;-87
2023/12/12 01:09:39;;;;;;;19.83;3.80;;;;;;;9.39;100.00;99197.63;12190663;19;20018;-86
2023/12/12 01:13:40;;;;;;;21.80;4.07;;;;;;;9.40;100.00;99193.78;12203466;19;20268;-86
2023/12/12 01:17:42;;;;;;;14.95;3.33;;;;;;;9.45;100.00;99197.41;12241077;19;20014;-85
2023/12/12 01:21:48;;;;;;;16.38;3.20;;;;;;;9.44;100.00;99182.03;12225391;19;20020;-86
2023/12/12 01:25:50;;;;;;;17.20;2.88;;;;;;;9.46;100.00;99174.34;12226456;19;20010;-86
2023/12/12 01:29:55;;;;;;;16.10;3.72;;;;;;;9.46;100.00;99176.25;12211847;19;20010;-85
2023/12/12 01:33:57;;;;;;;;;;;;;;;9.46;100.00;99174.34;12193226;19;20009;-86
2023/12/12 01:38:00;;;;;;;;;;;;;;;9.45;100.00;99158.09;12211659;19;19919;-84
2023/12/12 01:42:02;;;;;;;14.60;2.88;;;;;;;9.38;100.00;99163.81;12209188;19;19921;-85
2023/12/12 01:46:08;;;;;;;19.27;2.95;;;;;;;9.28;100.00;99164.53;12185363;19;20006;-86
2023/12/12 01:50:11;;;;;;;18.60;4.35;;;;;;;9.18;100.00;99152.56;12209793;19;20019;-86
2023/12/12 01:54:15;;;;;;;17.38;3.33;;;;;;;9.16;100.00;99154.72;12213917;19;20611;-84
2023/12/12 01:58:18;;;;;;;19.02;3.15;;;;;;;9.08;100.00;99151.34;12188734;19;20015;-85
2023/12/12 02:02:20;;;;;;;18.98;3.03;;;;;;;8.95;100.00;99154.47;12208615;19;20029;-84
2023/12/12 02:06:22;;;;;;;9.60;2.83;;;;;;;8.86;100.00;99145.00;12209904;19;20015;-85
2023/12/12 02:10:26;;;;;;;16.13;3.47;;;;;;;8.79;100.00;99147.13;12185370;19;20007;-85
2023/12/12 02:14:28;;;;;;;11.43;3.30;;;;;;;8.76;100.00;99159.47;12207725;19;20043;-85
2023/12/12 02:18:31;;;;;;;21.95;3.97;;;;;;;8.75;100.00;99166.03;12183822;19;20027;-85
2023/12/12 02:22:33;;;;;;;15.35;3.47;;;;;;;8.78;100.00;99167.47;12208430;19;20015;-85
2023/12/12 02:26:36;;;;;;;12.30;3.13;;;;;;;8.81;100.00;99167.78;12207103;19;20046;-85
2023/12/12 02:30:42;;;;;;;20.45;3.20;;;;;;;8.84;100.00;99155.44;12184543;19;21425;-84
2023/12/12 02:34:44;;;;;;;15.13;3.45;;;;;;;8.91;100.00;99153.34;12208170;19;20406;-84
2023/12/12 02:38:47;;;;;;;12.63;3.85;;;;;;;8.95;100.00;99151.72;12210360;19;20014;-85
2023/12/12 02:42:51;;;;;;;14.80;4.03;;;;;;;9.00;100.00;99149.06;12186581;19;20022;-85
2023/12/12 02:46:53;;;;;;;14.73;3.78;;;;;;;9.01;100.00;99145.25;12206184;19;20828;-83
2023/12/12 02:50:55;;;;;;;12.93;3.60;;;;;;;8.94;100.00;99146.50;12207718;19;20023;-84
2023/12/12 02:54:59;;;;;;;19.52;3.97;;;;;;;8.83;100.00;99148.28;12183901;19;20010;-84
2023/12/12 02:59:01;;;;;;;15.57;3.17;;;;;;;8.71;100.00;99137.41;12212783;19;20014;-84
2023/12/12 03:03:03;;;;;;;;;;;;;;;8.62;100.00;99144.44;12221079;19;20010;-84
2023/12/12 03:07:07;;;;;;;;;;;;;;;8.57;100.00;99153.44;12198898;19;20013;-84
2023/12/12 03:11:09;;;;;;;12.40;2.88;;;;;;;8.56;100.00;99153.69;12215443;19;19951;-84
2023/12/12 03:15:11;;;;;;;14.40;4.15;;;;;;;8.54;100.00;99134.72;12216551;19;20335;-84
2023/12/12 03:19:14;;;;;;;22.33;3.75;;;;;;;8.43;100.00;99136.47;12193817;19;20015;-85
2023/12/12 03:23:16;;;;;;;22.60;3.58;;;;;;;8.33;100.00;99138.19;12217629;19;20010;-85
2023/12/12 03:27:18;;;;;;;19.52;3.72;;;;;;;8.26;100.00;99148.53;12217649;19;20006;-84
2023/12/12 03:31:20;;;;;;;13.27;3.42;;;;;;;8.18;100.00;99153.38;12195082;19;20015;-86
2023/12/12 03:35:22;;;;;;;19.08;3.55;;;;;;;8.13;100.00;99147.78;12216477;19;20135;-85
2023/12/12 03:39:24;;;;;;;15.75;3.00;;;;;;;8.10;100.00;99155.69;12213952;19;20014;-86
2023/12/12 03:43:26;;;;;;;23.85;3.92;;;;;;;8.07;100.00;99157.03;12193518;19;20006;-86
2023/12/12 03:47:28;;;;;;;;;;;;;;;8.12;100.00;99159.00;12216041;19;20084;-84
2023/12/12 03:51:31;;;;;;;15.27;2.65;;;;;;;8.25;100.00;99158.69;12217025;19;19942;-85
2023/12/12 03:55:33;;;;;;;16.33;3.53;;;;;;;8.35;100.00;99158.81;12191109;19;20011;-86
2023/12/12 03:59:35;;;;;;;11.38;2.90;;;;;;;8.47;100.00;99145.03;12214155;19;20023;-83
2023/12/12 04:03:37;;;;;;;13.57;3.00;;;;;;;8.51;100.00;99145.38;12215068;19;20011;-84
2023/12/12 04:07:39;;;;;;;17.13;3.90;;;;;;;8.55;100.00;99141.88;12192046;19;20003;-84
2023/12/12 04:11:41;;;;;;;13.70;3.10;;;;;;;8.63;100.00;99133.19;12198255;19;20010;-85
2023/12/12 04:15:43;;;;;;;20.38;3.78;;;;;;;8.74;100.00;99134.16;12216635;19;20018;-85
2023/12/12 04:19:46;;;;;;;;;;;;;;;8.80;100.00;99127.63;12195805;19;20074;-86
2023/12/12 04:23:48;;;;;;;13.35;2.85;;;;;;;8.86;100.00;99128.53;12219018;19;20623;-87
2023/12/12 04:27:50;;;;;;;14.45;3.67;;;;;;;8.91;100.00;99123.13;12216068;19;20018;-87
2023/12/12 04:31:56;;;;;;;14.55;3.53;;;;;;;8.99;100.00;99124.59;12196484;19;20011;-85
2023/12/12 04:35:58;;;;;;;13.07;2.72;;;;;;;9.03;100.00;99123.81;12217851;19;20910;-87
2023/12/12 04:40:00;;;;;;;20.70;3.70;;;;;;;9.07;100.00;99113.13;12237810;19;20014;-84
2023/12/12 04:44:03;;;;;;;11.25;2.92;;;;;;;9.10;100.00;99110.72;12227167;19;20131;-86
2023/12/12 04:48:05;;;;;;;16.42;3.55;;;;;;;9.13;100.00;99101.09;12217622;19;20031;-85
2023/12/12 04:52:07;;;;;;;13.40;3.42;;;;;;;9.13;100.00;99096.47;12220985;19;20070;-87
2023/12/12 04:56:10;;;;;;;16.90;3.75;;;;;;;9.12;100.00;99094.78;12195523;19;20018;-86
2023/12/12 05:00:15;;;;;;;16.00;3.30;;;;;;;9.11;100.00;99084.88;12214323;19;20035;-86
2023/12/12 05:04:17;;;;;;;17.55;3.50;;;;;;;9.11;100.00;99098.63;12210778;19;20027;-86
2023/12/12 05:08:20;;;;;;;14.55;2.80;;;;;;;9.11;100.00;99095.88;12222111;19;20018;-85
2023/12/12 05:12:22;;;;;;;19.80;3.92;;;;;;;9.13;100.00;99093.72;12219726;19;20018;-85
2023/12/12 05:16:24;;;;;;;12.43;2.97;;;;;;;9.14;100.00;99089.03;12201429;19;20027;-86
2023/12/12 05:20:33;;;;;;;13.63;3.00;;;;;;;9.16;100.00;99095.13;12219675;19;20066;-86
2023/12/12 05:24:35;;;;;;;16.23;3.70;;;;;;;9.15;100.00;99078.88;12244169;19;20096;-86
2023/12/12 05:28:41;;;;;;;17.75;3.85;;;;;;;9.15;100.00;99074.19;12241726;19;20003;-86
2023/12/12 05:32:43;;;;;;;12.67;3.30;;;;;;;9.16;100.00;99069.53;12268702;19;20017;-86
2023/12/12 05:36:49;;;;;;;14.63;3.55;;;;;;;9.12;100.00;99069.22;12266630;19;20011;-85
2023/12/12 05:40:51;;;;;;;18.80;4.32;;;;;;;9.13;100.00;99070.88;12202661;19;20021;-87
2023/12/12 05:44:54;;;;;;;13.98;4.13;;;;;;;9.15;100.00;99063.19;12215322;19;20018;-87
2023/12/12 05:48:58;;;;;;;13.18;3.72;;;;;;;9.16;100.00;99069.53;12212795;19;20536;-87
2023/12/12 05:53:00;;;;;;;20.33;4.15;;;;;;;9.18;100.00;99072.84;12192653;19;20011;-87
2023/12/12 05:57:02;;;;;;;10.45;3.53;;;;;;;9.14;100.00;99075.28;12210176;19;20010;-86
2023/12/12 06:01:05;;;;;;;;;;;;;;;9.08;100.00;99074.41;12211396;19;20078;-88
2023/12/12 06:05:08;;;;;;;17.13;3.63;;;;;;;9.07;100.00;99061.75;12191380;19;20362;-89
2023/12/12 06:09:11;;;;;;;21.52;3.90;;;;;;;9.10;100.00;99068.63;12213584;19;20433;-86
2023/12/12 06:13:14;;;;;;;12.23;3.50;;;;;;;9.10;100.00;99072.25;12220224;19;20018;-87
2023/12/12 06:17:16;;;;;;;21.17;4.55;;;;;;;9.11;100.00;99062.06;12195680;19;20449;-87
2023/12/12 06:21:18;;;;;;;19.60;3.57;;;;;;;9.12;100.00;99063.72;12236505;19;20006;-86
2023/12/12 06:25:19;;;;;;;21.90;3.63;;;;;;;9.11;100.00;99057.41;12217272;19;20014;-86
2023/12/12 06:29:22;;;;;;;21.20;4.30;;;;;;;9.09;100.00;99042.25;12234394;19;20010;-89
2023/12/12 06:33:28;;;;;;;16.27;3.88;;;;;;;8.97;100.00;99028.66;12205043;19;20485;-88
2023/12/12 06:37:31;;;;;;;15.48;3.47;;;;;;;8.81;100.00;99029.59;12182118;19;20034;-87
2023/12/12 06:41:34;;;;;;;;;;;;;;;8.59;100.00;99037.81;12206888;19;20026;-90
2023/12/12 06:45:37;;;;;;;18.02;4.57;;;;;;;8.36;100.00;99028.75;12209023;19;19919;-88
2023/12/12 06:49:40;;;;;;;19.38;3.60;;;;;;;8.17;100.00;99036.44;12186736;19;20006;-88
2023/12/12 06:53:44;;;;;;;17.88;3.80;;;;;;;7.98;100.00;99037.81;12212594;19;20014;-89
2023/12/12 06:57:47;;;;;;;14.23;3.83;;;;;;;7.82;100.00;99035.91;12212135;19;20015;-87
2023/12/12 07:01:51;;;;;;;14.95;4.10;;;;;;;7.67;100.00;99031.84;12227384;19;20018;-85
2023/12/12 07:05:57;;;;;;;13.13;3.40;;;;;;;7.60;100.00;99035.84;12250280;19;20011;-86
2023/12/12 07:09:59;;;;;;;18.13;3.43;;;;;;;7.47;100.00;99035.09;12239476;19;20015;-87
2023/12/12 07:14:02;;;;;;;11.88;3.67;;;;;;;7.39;100.00;99040.97;12204910;19;20010;-87
2023/12/12 07:18:10;;;;;;;;;;;;;;;7.36;100.00;99037.91;12233095;19;20006;-90
2023/12/12 07:22:13;;;;;;;13.30;3.55;;;;;;;7.39;100.00;99037.41;12230537;19;21447;-85
2023/12/12 07:26:16;;;;;;;15.50;3.65;;;;;;;7.36;100.00;99033.25;12205618;19;20007;-86
2023/12/12 07:30:19;;;;;;;16.58;3.45;;;;;;;7.32;100.00;99023.88;12224158;19;20488;-85
2023/12/12 07:34:21;;;;;;;16.20;3.88;;;;;;;7.25;100.00;99007.56;12193469;19;20006;-87
2023/12/12 07:38:23;;;;;;;14.20;4.20;;;;;;;7.15;100.00;98993.72;12210752;19;20643;-87
2023/12/12 07:42:29;;;;;;;16.10;3.67;;;;;;;7.12;100.00;98996.94;12214105;19;20018;-84
2023/12/12 07:46:37;;;;;;;13.68;3.28;;;;;;;7.12;100.00;99001.59;12184412;19;20043;-84
2023/12/12 07:50:40;;;;;;;20.52;3.80;;;;;;;7.13;100.00;98990.38;12195152;19;20007;-87
2023/12/12 07:54:49;;;;;;;17.92;3.38;;;;;;;7.14;100.00;98999.44;12215978;19;20011;-87
2023/12/12 07:58:51;;;;;;;18.77;3.78;;;;;;;7.20;100.00;98998.47;12194995;19;20006;-87
2023/12/12 08:02:53;;;;;;;14.07;3.38;;;;;;;7.27;100.00;98996.38;12220762;19;20017;-88
2023/12/12 08:06:55;;;;;;;14.18;3.83;;;;;;;7.39;100.00;99001.78;12219414;19;20029;-87
2023/12/12 08:10:57;;;;;;;19.27;4.13;;;;;;;7.59;100.00;99002.13;12197172;19;20032;-86
2023/12/12 08:14:59;;;;;;;16.57;3.37;;;;;;;7.84;100.00;99009.88;12216654;19;20006;-88
2023/12/12 08:19:02;;;;;;;;;;;;;;;8.09;100.00;99001.22;12220549;19;20086;-89
2023/12/12 08:23:04;;;;;;;10.53;2.87;;;;;;;8.33;100.00;98992.72;12192986;19;20362;-87
2023/12/12 08:27:07;;;;;;;11.95;3.83;;;;;;;8.50;100.00;98985.28;12214952;19;20765;-89
2023/12/12 08:31:09;;;;;;;16.88;3.60;;;;;;;8.63;100.00;98982.16;12213384;19;20010;-87
2023/12/12 08:35:13;;;;;;;14.60;3.33;;;;;;;8.75;100.00;98992.16;12192943;19;20011;-85
2023/12/12 08:39:15;;;;;;;16.13;3.17;;;;;;;8.94;100.00;98981.63;12211702;19;20011;-88
2023/12/12 08:43:17;;;;;;;12.68;3.10;;;;;;;9.10;100.00;98969.69;12208922;19;20007;-86
2023/12/12 08:47:20;;;;;;;11.93;2.72;;;;;;;9.25;100.00;98975.34;12210502;19;20011;-88
2023/12/12 08:51:24;;;;;;;14.15;3.53;;;;;;;9.43;100.00;98970.53;12212068;19;20019;-86
2023/12/12 08:55:27;;;;;;;13.75;2.88;;;;;;;9.63;100.00;98973.44;12201793;19;20366;-88
2023/12/12 08:59:29;;;;;;;15.03;3.43;;;;;;;9.85;100.00;98956.81;12207313;19;20062;-88
2023/12/12 09:03:32;;;;;;;19.60;3.28;;;;;;;10.08;100.00;98954.72;12189980;19;20090;-87
2023/12/12 09:07:34;;;;;;;15.85;3.22;;;;;;;10.30;100.00;98944.41;12210407;19;20046;-88
2023/12/12 09:11:40;;;;;;;13.35;3.58;;;;;;;10.51;100.00;98941.72;12186864;19;20390;-87
2023/12/12 09:15:42;;;;;;;9.02;2.30;;;;;;;10.66;100.00;98941.78;12210131;19;20014;-90
2023/12/12 09:19:43;;;;;;;11.90;3.03;;;;;;;10.78;100.00;98942.34;12209438;19;20015;-88
2023/12/12 09:23:49;;;;;;;11.02;3.35;;;;;;;10.80;100.00;98928.31;12187501;19;20027;-87
2023/12/12 09:27:51;;;;;;;13.25;3.88;;;;;;;10.81;100.00;98922.50;12209061;19;20007;-87
2023/12/12 09:31:53;;;;;;;8.83;3.60;;;;;;;10.84;100.00;98916.44;12206413;19;20011;-88
2023/12/12 09:35:55;;;;;;;10.85;3.45;;;;;;;10.86;100.00;98905.16;12185491;19;20018;-89
2023/12/12 09:39:57;;;;;;;13.75;3.05;;;;;;;10.91;100.00;98899.63;12205115;19;20467;-88
2023/12/12 09:44:03;;;;;;;14.70;3.67;;;;;;;10.94;100.00;98905.41;12205962;19;20022;-89
2023/12/12 09:48:05;;;;;;;17.88;3.85;;;;;;;10.91;100.00;98903.22;12186104;19;20003;-87
2023/12/12 09:52:08;;;;;;;15.80;3.90;;;;;;;10.90;100.00;98884.22;12206368;19;20084;-89
2023/12/12 09:56:11;;;;;;;10.50;3.50;;;;;;;10.88;100.00;98887.22;12211822;19;20450;-86
2023/12/12 10:00:14;;;;;;;13.85;3.58;;;;;;;10.85;100.00;98878.69;12183004;19;20524;-84
2023/12/12 10:04:17;;;;;;;24.25;5.78;;;;;;;10.83;100.00;98870.72;12208839;19;20437;-83
2023/12/12 10:08:19;;;;;;;14.48;3.92;;;;;;;10.86;100.00;98861.06;12205754;19;20018;-85
2023/12/12 10:12:21;;;;;;;18.20;4.17;;;;;;;11.01;100.00;98844.53;12183559;19;20078;-85
2023/12/12 10:16:25;;;;;;;14.48;2.42;;;;;;;11.06;100.00;98827.13;12199535;19;20062;-86
2023/12/12 10:20:30;;;;;;;10.32;3.53;;;;;;;11.08;100.00;98825.75;12202653;19;20014;-86
2023/12/12 10:24:33;;;;;;;9.07;2.95;;;;;;;11.11;100.00;98835.41;12175695;19;20077;-82
2023/12/12 10:28:35;;;;;;;9.95;2.28;;;;;;;11.15;100.00;98825.47;12196269;19;20017;-85
2023/12/12 10:32:37;;;;;;;9.73;3.07;;;;;;;11.16;100.00;98818.88;12203744;19;20019;-86
2023/12/12 10:36:47;;;;;;;10.27;2.00;;;;;;;11.15;100.00;98792.38;12171009;19;20025;-85
2023/12/12 10:40:49;;;;;;;5.97;2.03;;;;;;;11.16;100.00;98780.28;12198986;19;20781;-85
2023/12/12 10:44:56;;;;;;;9.40;2.00;;;;;;;11.29;100.00;98789.88;12170778;19;20537;-86
2023/12/12 10:49:00;;;;;;;6.95;2.53;;;;;;;11.35;100.00;98786.84;12206910;19;20015;-85
2023/12/12 10:53:03;;;;;;;5.65;1.63;;;;;;;11.39;100.00;98782.44;12195381;19;20877;-85
2023/12/12 10:57:06;;;;;;;6.90;2.05;;;;;;;11.44;100.00;98783.50;12177808;19;20011;-86
2023/12/12 11:01:10;;;;;;;7.18;1.52;;;;;;;11.41;100.00;98763.63;12201192;19;20010;-83
2023/12/12 11:05:14;;;;;;;5.35;1.55;;;;;;;11.38;100.00;98761.44;12205685;19;20007;-84
2023/12/12 11:09:20;;;;;;;4.95;1.30;;;;;;;11.35;100.00;98759.25;12182397;19;20055;-85
2023/12/12 11:13:27;;;;;;;6.25;1.73;;;;;;;11.33;100.00;98744.09;12203839;19;20311;-86
2023/12/12 11:17:29;;;;;;;5.68;1.75;;;;;;;11.32;100.00;98729.47;12175457;19;20481;-84
2023/12/12 11:21:42;;;;;;;4.88;2.17;;;;;;;11.34;100.00;98718.19;12162856;19;21547;-85
2023/12/12 11:25:44;;;;;;;10.45;2.88;;;;;;;11.35;100.00;98714.28;12190624;19;20010;-83
2023/12/12 11:29:46;;;;;;;6.70;2.13;;;;;;;11.36;100.00;98691.13;12163869;19;20011;-82
2023/12/12 11:34:06;;;;;;;7.28;2.10;;;;;;;11.36;100.00;98689.22;12184634;19;20062;-83
2023/12/12 11:38:33;;;;;;;4.88;2.10;;;;;;;11.33;100.00;98686.16;12184792;19;20409;-83
2023/12/12 11:42:35;;;;;;;8.40;2.70;;;;;;;11.34;100.00;98680.38;12174531;19;20022;-84
2023/12/12 11:46:37;;;;;;;6.20;2.63;;;;;;;11.31;100.00;98682.88;12174982;19;20006;-85
2023/12/12 11:50:41;;;;;;;8.95;3.40;;;;;;;11.26;100.00;98678.19;12167137;19;20035;-85
2023/12/12 11:54:52;;;;;;;8.68;4.18;;;;;;;11.33;100.00;98667.72;12181925;19;21042;-84
2023/12/12 11:58:56;;;;;;;8.20;3.72;;;;;;;11.46;100.00;98638.69;12185480;19;20010;-85
2023/12/12 12:02:59;;;;;;;8.20;3.53;;;;;;;11.56;100.00;98627.56;12177943;19;20008;-84
2023/12/12 12:07:02;;;;;;;6.53;2.80;;;;;;;11.53;100.00;98624.56;12184737;19;20006;-84
2023/12/12 12:11:06;;;;;;;8.05;2.92;;;;;;;11.43;100.00;98638.44;12183185;19;20636;-84
2023/12/12 12:15:11;;;;;;;3.47;1.87;;;;;;;11.33;100.00;98620.81;12173877;19;20077;-85
2023/12/12 12:19:56;;;;;;;6.18;2.35;;;;;;;11.34;100.00;98603.16;12198044;19;20009;-85
2023/12/12 12:23:58;;;;;;;8.18;2.25;;;;;;;11.31;100.00;98598.22;12187252;19;20083;-82
2023/12/12 12:28:01;;;;;;;7.03;2.42;;;;;;;11.32;100.00;98579.72;12200027;19;20453;-85
2023/12/12 12:32:13;;;;;;;3.85;2.20;;;;;;;11.26;100.00;98576.16;12203276;19;20010;-83
2023/12/12 12:36:16;;;;;;;4.28;2.25;;;;;;;11.29;100.00;98578.34;12182513;19;20011;-82
2023/12/12 12:40:33;;;;;;;6.25;2.35;;;;;;;11.30;100.00;98587.44;12203522;19;20027;-83
2023/12/12 12:44:37;;;;;;;4.30;2.03;;;;;;;11.28;100.00;98579.47;12205299;19;20019;-84
2023/12/12 12:48:39;;;;;;;6.20;2.28;;;;;;;11.25;100.00;98582.81;12184481;19;20477;-83
2023/12/12 12:52:41;;;;;;;4.85;2.47;;;;;;;11.22;100.00;98586.13;12203445;19;20021;-82
2023/12/12 12:56:46;;;;;;;3.47;1.63;;;;;;;11.19;100.00;98578.44;12178859;19;20007;-83
2023/12/12 13:00:48;;;;;;;3.75;2.30;;;;;;;11.15;100.00;98569.06;12200864;19;20007;-83
2023/12/12 13:04:51;;;;;;;6.20;2.50;;;;;;;11.10;100.00;98569.94;12204556;19;20010;-83
2023/12/12 13:08:53;;;;;;;4.93;2.30;;;;;;;11.13;100.00;98557.50;12180088;19;20042;-83
2023/12/12 13:12:55;;;;;;;5.53;2.78;;;;;;;11.21;100.00;98559.66;12203850;19;20062;-82
2023/12/12 13:16:58;;;;;;;6.43;2.30;;;;;;;11.29;100.00;98545.28;12211292;19;20023;-82
2023/12/12 13:21:02;;;;;;;6.15;2.70;;;;;;;11.33;100.00;98546.38;12192886;19;20018;-83
2023/12/12 13:25:06;;;;;;;5.53;2.70;;;;;;;11.38;100.00;98538.03;12258947;19;20362;-83
2023/12/12 13:29:10;;;;;;;6.38;3.00;;;;;;;11.45;100.00;98539.66;12264326;19;20562;-82
2023/12/12 13:33:12;;;;;;;7.27;3.30;;;;;;;11.40;100.00;98527.56;12212422;19;21288;-83
2023/12/12 13:37:16;;;;;;;8.98;3.78;;;;;;;11.38;100.00;98527.00;12211483;19;20010;-83
2023/12/12 13:41:19;;;;;;;9.23;4.30;;;;;;;11.38;100.00;98526.19;12203382;19;20017;-83
2023/12/12 13:45:21;;;;;;;8.83;4.30;;;;;;;11.31;100.00;98526.50;12183365;19;20360;-82
2023/12/12 13:49:23;;;;;;;11.97;5.00;;;;;;;11.26;100.00;98528.47;12205414;19;20007;-83
2023/12/12 13:53:27;;;;;;;11.85;5.18;;;;;;;11.29;100.00;98519.63;12201084;19;20466;-83
2023/12/12 13:57:29;;;;;;;12.85;5.30;;;;;;;11.33;100.00;98526.22;12179704;19;20017;-83
2023/12/12 14:01:33;;;;;;;10.95;5.45;;;;;;;11.33;100.00;98510.50;12195947;19;20025;-83
2023/12/12 14:05:36;;;;;;;14.50;5.83;;;;;;;11.29;100.00;98506.66;12201641;19;20380;-83
2023/12/12 14:09:42;;;;;;;10.55;4.90;;;;;;;11.28;100.00;98516.06;12179584;19;20240;-83
2023/12/12 14:13:44;;;;;;;10.07;4.67;;;;;;;11.28;100.00;98516.06;12200814;19;20019;-84
2023/12/12 14:17:46;;;;;;;12.13;5.50;;;;;;;11.30;100.00;98513.00;12181309;19;20020;-84
2023/12/12 14:21:49;;;;;;;9.20;4.60;;;;;;;11.27;100.00;98514.38;12204828;19;20007;-84
2023/12/12 14:25:52;;;;;;;9.43;4.43;;;;;;;11.27;100.00;98514.38;12203298;19;20017;-84
2023/12/12 14:29:56;;;;;;;12.40;4.80;;;;;;;11.29;100.00;98505.84;12181864;19;20043;-83
2023/12/12 14:33:58;;;;;;;12.77;4.80;;;;;;;11.28;100.00;98502.25;12203572;19;21421;-83
2023/12/12 14:38:01;;;;;;;15.02;5.80;;;;;;;11.28;100.00;98485.72;12206662;19;20038;-83
2023/12/12 14:42:04;;;;;;;8.63;5.35;;;;;;;11.27;100.00;98489.56;12188490;19;20017;-83
2023/12/12 14:46:07;;;;;;;9.68;4.57;;;;;;;11.27;100.00;98483.22;12209053;19;20019;-84
2023/12/12 14:50:09;;;;;;;12.18;5.82;;;;;;;11.28;100.00;98482.16;12207665;19;20430;-83
2023/12/12 14:54:13;;;;;;;10.30;5.40;;;;;;;11.31;100.00;98476.88;12226654;19;20038;-83
2023/12/12 14:58:15;;;;;;;11.18;4.97;;;;;;;11.26;100.00;98463.13;12231498;19;20024;-84
2023/12/12 15:02:17;;;;;;;12.43;4.93;;;;;;;11.20;100.00;98469.78;12214550;19;20026;-83
2023/12/12 15:06:19;;;;;;;12.20;6.07;;;;;;;11.11;100.00;98454.97;12195825;19;20015;-84
2023/12/12 15:10:21;;;;;;;14.50;6.00;;;;;;;11.05;100.00;98453.34;12216040;19;20066;-83
2023/12/12 15:14:23;;;;;;;9.60;5.35;;;;;;;10.98;100.00;98450.91;12216588;19;20007;-84
2023/12/12 15:18:26;;;;;;;13.82;6.63;;;;;;;11.00;100.00;98453.38;12216322;19;20014;-83
2023/12/12 15:22:28;;;;;;;11.77;6.30;;;;;;;11.00;100.00;98448.69;12258852;19;20018;-83
2023/12/12 15:26:31;;;;;;;;;;;;;;;11.05;100.00;98443.13;12256336;19;20007;-83
2023/12/12 15:30:36;;;;;;;9.93;5.95;;;;;;;11.04;100.00;98432.41;12215481;19;19919;-83
2023/12/12 15:34:39;;;;;;;;;;;;;;;11.00;100.00;98410.09;12215488;19;20010;-83
2023/12/12 15:38:41;;;;;;;11.37;5.93;;;;;;;11.02;100.00;98402.38;12186926;19;19919;-82
2023/12/12 15:42:44;;;;;;;13.32;6.53;;;;;;;11.06;100.00;98408.94;12210983;19;20025;-83
2023/12/12 15:46:46;;;;;;;14.37;6.60;;;;;;;11.04;100.00;98400.16;12209230;19;20006;-83
2023/12/12 15:50:49;;;;;;;15.07;7.28;;;;;;;11.04;100.00;98396.59;12188957;19;20002;-83
2023/12/12 15:54:51;;;;;;;11.57;6.10;;;;;;;11.07;100.00;98404.28;12206096;19;20037;-83
2023/12/12 15:58:58;;;;;;;13.50;5.97;;;;;;;11.08;100.00;98390.19;12207444;19;20070;-83
2023/12/12 16:03:01;;;;;;;12.15;5.43;;;;;;;11.10;100.00;98393.50;12183446;19;20011;-83
2023/12/12 16:07:03;;;;;;;11.15;6.35;;;;;;;11.08;100.00;98389.38;12207375;19;20029;-82
2023/12/12 16:11:06;;;;;;;13.10;6.00;;;;;;;11.10;100.00;98381.66;12206047;19;20070;-82
2023/12/12 16:15:15;;;;;;;13.27;5.82;;;;;;;11.08;100.00;98367.31;12184791;19;20010;-84
2023/12/12 16:19:17;;;;;;;13.05;6.38;;;;;;;11.09;100.00;98368.97;12206585;19;20015;-82
2023/12/12 16:23:20;;;;;;;12.88;6.72;;;;;;;11.11;100.00;98373.06;12208379;19;20006;-83
2023/12/12 16:27:22;;;;;;;11.70;5.83;;;;;;;11.10;100.00;98365.09;12192685;19;20741;-83
2023/12/12 16:31:25;;;;;;;13.82;6.90;;;;;;;11.10;100.00;98362.34;12206067;19;20084;-81
2023/12/12 16:35:29;;;;;;;14.70;7.60;;;;;;;11.06;100.00;98356.56;12209258;19;20127;-83
2023/12/12 16:39:32;;;;;;;16.90;7.22;;;;;;;11.09;100.00;98355.16;12187259;19;20013;-83
2023/12/12 16:43:34;;;;;;;16.43;8.17;;;;;;;11.11;100.00;98355.72;12206152;19;20015;-82
2023/12/12 16:47:37;;;;;;;12.60;7.07;;;;;;;11.12;100.00;98351.84;12208543;19;20024;-82
2023/12/12 16:51:41;;;;;;;18.45;8.35;;;;;;;11.10;100.00;98348.56;12185574;19;20006;-82
2023/12/12 16:55:44;;;;;;;16.55;8.60;;;;;;;11.09;100.00;98342.22;12207485;19;20006;-83
2023/12/12 16:59:46;;;;;;;16.85;8.43;;;;;;;11.14;100.00;98339.41;12183275;19;20423;-82
2023/12/12 17:03:49;;;;;;;17.70;8.38;;;;;;;11.14;100.00;98333.91;12204696;19;20003;-83
2023/12/12 17:07:51;;;;;;;16.25;8.43;;;;;;;11.14;100.00;98349.63;12204637;19;20011;-82
2023/12/12 17:11:57;;;;;;;15.70;8.55;;;;;;;11.10;100.00;98341.13;12192923;19;20070;-83
2023/12/12 17:15:59;;;;;;;18.92;10.30;;;;;;;11.07;100.00;98343.63;12205413;19;20011;-83
2023/12/12 17:20:01;;;;;;;20.42;10.57;;;;;;;11.08;100.00;98348.84;12205955;19;20006;-84
2023/12/12 17:24:03;;;;;;;23.15;10.50;;;;;;;11.09;100.00;98346.91;12183727;19;20022;-83
2023/12/12 17:28:09;;;;;;;23.50;10.50;;;;;;;11.07;100.00;98338.94;12204232;19;19999;-83
2023/12/12 17:32:12;;;;;;;22.88;10.48;;;;;;;11.11;100.00;98336.41;12205482;19;20003;-83
2023/12/12 17:36:14;;;;;;;20.05;9.85;;;;;;;11.15;100.00;98329.19;12186857;19;20119;-82
2023/12/12 17:40:16;;;;;;;21.77;11.37;;;;;;;11.20;100.00;98331.09;12202278;19;20010;-82
2023/12/12 17:44:19;;;;;;;28.83;14.75;;;;;;;11.22;100.00;98323.38;12204420;19;20477;-82
2023/12/12 17:48:22;;;;;;;20.05;11.07;;;;;;;11.20;100.00;98317.31;12182216;19;20018;-81
2023/12/12 17:52:24;;;;;;;19.00;10.27;;;;;;;11.22;100.00;98326.13;12202590;19;20349;-82
2023/12/12 17:56:27;;;;;;;;;;;;;;;11.23;100.00;98311.22;12203786;19;20717;-82
2023/12/12 18:00:32;;;;;;;16.83;9.57;;;;;;;11.24;100.00;98310.91;12180109;19;20314;-82
2023/12/12 18:04:34;;;;;;;21.43;10.17;;;;;;;11.26;100.00;98292.16;12203996;19;20003;-83
2023/12/12 18:08:40;;;;;;;18.23;9.40;;;;;;;11.29;100.00;98285.25;12200992;19;20026;-82
2023/12/12 18:12:43;;;;;;;19.50;9.02;;;;;;;11.27;100.00;98268.97;12181678;19;20014;-81
2023/12/12 18:16:51;;;;;;;18.55;9.95;;;;;;;11.28;100.00;98267.88;12204098;19;20017;-82
2023/12/12 18:20:55;;;;;;;17.13;8.88;;;;;;;11.31;100.00;98261.78;12209918;19;20018;-82
2023/12/12 18:24:56;;;;;;;16.92;8.02;;;;;;;11.31;100.00;98245.22;12234013;19;20007;-82
2023/12/12 18:29:00;;;;;;;15.35;7.25;;;;;;;11.31;100.00;98253.50;12201264;19;20132;-82
2023/12/12 18:33:02;;;;;;;15.02;7.60;;;;;;;11.34;100.00;98252.91;12181840;19;20037;-82
2023/12/12 18:37:05;;;;;;;12.82;7.28;;;;;;;11.33;100.00;98243.00;12205311;19;20006;-83